createdAt,value
2022-12-20T00:00:51.594Z,9.07
2022-12-20T00:03:18.333Z,8.38
2022-12-20T00:05:44.941Z,8.63
2022-12-20T00:08:11.679Z,8.07
2022-12-20T00:10:39.619Z,5.00
2022-12-20T00:13:06.589Z,7.13
2022-12-20T00:15:33.262Z,8.05
2022-12-20T00:18:00.004Z,7.72
2022-12-20T00:20:27.260Z,8.90
2022-12-20T00:22:53.900Z,6.45
2022-12-20T00:25:20.855Z,10.10
2022-12-20T00:27:50.465Z,9.10
2022-12-20T00:30:17.568Z,7.05
2022-12-20T00:32:44.665Z,8.50
2022-12-20T00:35:11.839Z,5.90
2022-12-20T00:37:38.563Z,5.03
2022-12-20T00:40:06.418Z,8.35
2022-12-20T00:42:33.211Z,7.97
2022-12-20T00:44:59.863Z,6.05
2022-12-20T00:47:26.441Z,4.85
2022-12-20T00:49:52.969Z,3.63
2022-12-20T00:52:19.630Z,6.93
2022-12-20T00:54:46.184Z,6.10
2022-12-20T00:57:12.967Z,4.55
2022-12-20T00:59:39.516Z,9.77
2022-12-20T01:02:06.295Z,6.05
2022-12-20T01:04:32.940Z,6.00
2022-12-20T01:06:59.494Z,4.68
2022-12-20T01:09:26.084Z,4.72
2022-12-20T01:11:52.603Z,4.32
2022-12-20T01:14:19.150Z,3.00
2022-12-20T01:16:47.148Z,4.47
2022-12-20T01:19:17.161Z,6.63
2022-12-20T01:21:46.980Z,6.10
2022-12-20T01:24:17.771Z,5.28
2022-12-20T01:26:45.206Z,8.27
2022-12-20T01:29:13.995Z,8.32
2022-12-20T01:31:42.369Z,5.93
2022-12-20T01:34:10.414Z,6.55
2022-12-20T01:36:40.197Z,5.05
2022-12-20T01:39:13.956Z,4.82
2022-12-20T01:41:42.315Z,6.45
2022-12-20T01:44:17.703Z,4.32
2022-12-20T01:46:45.773Z,4.63
2022-12-20T01:49:16.935Z,4.88
2022-12-20T01:51:48.437Z,3.58
2022-12-20T01:54:37.926Z,3.33
2022-12-20T01:57:08.087Z,5.38
2022-12-20T01:59:37.808Z,5.47
2022-12-20T02:02:08.842Z,6.25
2022-12-20T02:04:35.583Z,4.63
2022-12-20T02:07:03.576Z,4.13
2022-12-20T02:09:31.541Z,8.35
2022-12-20T02:12:17.713Z,6.50
2022-12-20T02:15:10.268Z,8.65
2022-12-20T02:17:55.675Z,5.57
2022-12-20T02:20:29.676Z,3.05
2022-12-20T02:23:19.461Z,5.00
2022-12-20T02:26:17.019Z,4.80
2022-12-20T02:29:09.547Z,9.48
2022-12-20T02:32:16.009Z,5.18
2022-12-20T02:34:43.303Z,4.80
2022-12-20T02:37:10.507Z,11.10
2022-12-20T02:39:39.473Z,5.28
2022-12-20T02:42:23.991Z,4.07
2022-12-20T02:45:14.745Z,3.97
2022-12-20T02:48:04.536Z,5.40
2022-12-20T02:50:39.132Z,4.15
2022-12-20T02:53:06.709Z,3.22
2022-12-20T02:55:46.755Z,4.20
2022-12-20T02:58:23.405Z,4.65
2022-12-20T03:00:51.086Z,7.88
2022-12-20T03:03:24.172Z,4.35
2022-12-20T03:05:55.971Z,4.95
2022-12-20T03:08:23.327Z,5.72
2022-12-20T03:10:51.706Z,8.32
2022-12-20T03:13:18.590Z,11.30
2022-12-20T03:15:50.635Z,8.20
2022-12-20T03:18:17.495Z,9.10
2022-12-20T03:20:44.107Z,6.72
2022-12-20T03:23:10.675Z,11.95
2022-12-20T03:25:37.474Z,10.30
2022-12-20T03:28:05.109Z,13.10
2022-12-20T03:30:31.958Z,15.80
2022-12-20T03:32:58.656Z,12.77
2022-12-20T03:35:25.457Z,13.55
2022-12-20T03:37:52.133Z,16.75
2022-12-20T03:40:18.877Z,23.70
2022-12-20T03:42:45.439Z,32.15
2022-12-20T03:45:12.304Z,34.55
2022-12-20T03:47:39.029Z,37.33
2022-12-20T03:50:06.803Z,41.28
2022-12-20T03:52:35.270Z,25.67
2022-12-20T03:55:01.889Z,25.05
2022-12-20T03:57:39.056Z,32.38
2022-12-20T04:00:16.357Z,28.27
2022-12-20T04:02:46.339Z,26.30
2022-12-20T04:05:13.132Z,26.63
2022-12-20T04:07:39.683Z,24.45
2022-12-20T04:10:08.081Z,24.50
2022-12-20T04:12:34.678Z,28.13
2022-12-20T04:15:02.510Z,29.98
2022-12-20T04:17:29.801Z,33.85
2022-12-20T04:19:56.530Z,38.67
2022-12-20T04:22:23.152Z,47.42
2022-12-20T04:24:59.801Z,42.35
2022-12-20T04:27:31.347Z,38.13
2022-12-20T04:29:58.216Z,35.83
2022-12-20T04:32:24.904Z,37.30
2022-12-20T04:34:52.078Z,40.00
2022-12-20T04:37:19.567Z,25.05
2022-12-20T04:39:51.250Z,29.15
2022-12-20T04:42:24.764Z,24.52
2022-12-20T04:44:52.950Z,25.95
2022-12-20T04:47:24.130Z,29.42
2022-12-20T04:49:52.259Z,36.08
2022-12-20T04:52:40.838Z,38.70
2022-12-20T04:55:10.064Z,41.38
2022-12-20T04:57:36.746Z,40.40
2022-12-20T05:00:07.457Z,47.20
2022-12-20T05:02:34.127Z,55.10
2022-12-20T05:05:06.320Z,45.08
2022-12-20T05:07:39.130Z,48.15
2022-12-20T05:10:06.342Z,36.35
2022-12-20T05:12:32.910Z,37.13
2022-12-20T05:15:02.442Z,26.05
2022-12-20T05:17:29.108Z,27.48
2022-12-20T05:19:55.677Z,28.63
2022-12-20T05:22:40.902Z,27.73
2022-12-20T05:25:30.389Z,27.60
2022-12-20T05:28:00.695Z,29.65
2022-12-20T05:30:31.099Z,21.52
2022-12-20T05:32:57.692Z,31.65
2022-12-20T05:35:24.806Z,34.25
2022-12-20T05:37:57.640Z,31.42
2022-12-20T05:40:24.196Z,30.38
2022-12-20T05:42:50.831Z,29.45
2022-12-20T05:45:19.015Z,32.08
2022-12-20T05:47:51.799Z,39.42
2022-12-20T05:50:19.406Z,44.90
2022-12-20T05:53:11.256Z,44.75
2022-12-20T05:55:47.976Z,38.50
2022-12-20T05:58:15.208Z,39.83
2022-12-20T06:00:51.988Z,43.42
2022-12-20T06:03:19.286Z,44.90
2022-12-20T06:05:46.107Z,52.05
2022-12-20T06:08:17.838Z,39.17
2022-12-20T06:10:44.524Z,39.42
2022-12-20T06:13:14.132Z,38.28
2022-12-20T06:15:41.469Z,36.47
2022-12-20T06:18:08.071Z,41.00
2022-12-20T06:20:35.537Z,30.20
2022-12-20T06:23:03.574Z,25.60
2022-12-20T06:25:36.814Z,33.15
2022-12-20T06:28:03.565Z,31.17
2022-12-20T06:30:33.769Z,26.13
2022-12-20T06:33:18.417Z,29.70
2022-12-20T06:35:45.072Z,31.45
2022-12-20T06:38:12.279Z,31.58
2022-12-20T06:40:39.931Z,42.03
2022-12-20T06:43:07.086Z,41.95
2022-12-20T06:45:41.008Z,40.90
2022-12-20T06:48:09.128Z,42.85
2022-12-20T06:50:36.050Z,38.03
2022-12-20T06:53:02.756Z,36.17
2022-12-20T06:55:29.374Z,41.70
2022-12-20T06:57:56.359Z,38.10
2022-12-20T07:00:23.471Z,31.27
2022-12-20T07:02:50.043Z,27.23
2022-12-20T07:05:16.715Z,27.85
2022-12-20T07:07:45.420Z,31.58
2022-12-20T07:10:12.955Z,32.08
2022-12-20T07:12:43.866Z,25.15
2022-12-20T07:15:13.904Z,23.48
2022-12-20T07:17:40.441Z,21.10
2022-12-20T07:20:13.019Z,19.23
2022-12-20T07:22:40.332Z,21.33
2022-12-20T07:25:06.971Z,20.38
2022-12-20T07:27:33.466Z,19.27
2022-12-20T07:30:00.230Z,22.60
2022-12-20T07:32:26.776Z,22.90
2022-12-20T07:34:53.552Z,20.40
2022-12-20T07:37:20.309Z,19.75
2022-12-20T07:39:46.863Z,22.35
2022-12-20T07:42:13.872Z,16.33
2022-12-20T07:44:42.752Z,13.85
2022-12-20T07:47:10.209Z,15.27
2022-12-20T07:49:37.069Z,12.95
2022-12-20T07:52:04.562Z,14.25
2022-12-20T07:54:33.597Z,13.23
2022-12-20T07:57:04.831Z,12.35
2022-12-20T07:59:37.319Z,16.42
2022-12-20T08:02:05.355Z,16.40
2022-12-20T08:04:33.278Z,11.93
2022-12-20T08:07:01.403Z,11.73
2022-12-20T08:09:34.534Z,10.25
2022-12-20T08:12:01.081Z,12.45
2022-12-20T08:14:27.634Z,10.32
2022-12-20T08:16:54.199Z,11.68
2022-12-20T08:19:21.917Z,9.45
2022-12-20T08:21:50.934Z,14.77
2022-12-20T08:24:17.524Z,11.13
2022-12-20T08:26:44.251Z,11.45
2022-12-20T08:29:10.912Z,13.20
2022-12-20T08:31:42.002Z,11.38
2022-12-20T08:34:12.650Z,13.30
2022-12-20T08:36:39.237Z,20.98
2022-12-20T08:39:06.549Z,11.35
2022-12-20T08:41:34.763Z,12.73
2022-12-20T08:44:01.692Z,15.70
2022-12-20T08:46:28.426Z,10.30
2022-12-20T08:48:55.068Z,14.13
2022-12-20T08:51:21.808Z,12.70
2022-12-20T08:53:48.488Z,9.23
2022-12-20T08:56:17.090Z,9.48
2022-12-20T08:58:44.656Z,13.70
2022-12-20T09:01:14.115Z,9.95
2022-12-20T09:03:41.239Z,13.45
2022-12-20T09:06:13.567Z,8.00
2022-12-20T09:08:40.790Z,11.23
2022-12-20T09:11:33.942Z,8.20
2022-12-20T09:14:00.692Z,9.68
2022-12-20T09:16:30.323Z,6.22
2022-12-20T09:19:04.544Z,12.93
2022-12-20T09:21:32.305Z,8.55
2022-12-20T09:23:59.229Z,7.90
2022-12-20T09:26:26.961Z,7.05
2022-12-20T09:28:53.991Z,9.10
2022-12-20T09:31:22.512Z,8.18
2022-12-20T09:33:49.313Z,9.30
2022-12-20T09:36:18.878Z,9.90
2022-12-20T09:38:46.834Z,11.77
2022-12-20T09:41:22.801Z,11.63
2022-12-20T09:43:49.959Z,8.55
2022-12-20T09:46:17.158Z,6.78
2022-12-20T09:48:44.577Z,12.70
2022-12-20T09:51:30.161Z,8.40
2022-12-20T09:54:18.427Z,10.48
2022-12-20T09:57:00.313Z,13.75
2022-12-20T09:59:27.679Z,12.20
2022-12-20T10:01:54.752Z,13.43
2022-12-20T10:04:22.042Z,11.82
2022-12-20T10:07:18.357Z,11.82
2022-12-20T10:10:19.948Z,16.70
2022-12-20T10:15:24.732Z,12.48
2022-12-20T10:17:57.108Z,13.75
2022-12-20T10:20:29.647Z,13.98
2022-12-20T10:23:04.449Z,13.13
2022-12-20T10:25:33.562Z,10.95
2022-12-20T10:28:05.408Z,13.35
2022-12-20T10:30:33.179Z,13.48
2022-12-20T10:33:00.011Z,11.93
2022-12-20T10:35:28.990Z,9.40
2022-12-20T10:38:07.190Z,13.00
2022-12-20T10:44:00.970Z,10.65
2022-12-20T10:46:42.531Z,10.00
2022-12-20T10:49:43.474Z,11.82
2022-12-20T10:52:10.066Z,14.93
2022-12-20T10:54:37.547Z,13.05
2022-12-20T10:57:16.724Z,10.07
2022-12-20T11:00:05.606Z,12.30
2022-12-20T11:02:40.050Z,10.35
2022-12-20T11:05:10.578Z,9.65
2022-12-20T11:07:41.277Z,8.73
2022-12-20T11:10:25.009Z,8.52
2022-12-20T11:15:34.113Z,9.18
2022-12-20T11:18:20.509Z,11.73
2022-12-20T11:21:14.622Z,9.63
2022-12-20T11:24:04.969Z,12.88
2022-12-20T11:26:41.825Z,8.05
2022-12-20T11:29:33.143Z,8.02
2022-12-20T11:32:27.056Z,7.32
2022-12-20T11:35:16.985Z,9.88
2022-12-20T11:38:09.231Z,7.97
2022-12-20T11:40:52.104Z,9.48
2022-12-20T11:43:43.356Z,7.53
2022-12-20T11:46:52.791Z,7.22
2022-12-20T11:49:53.150Z,11.95
2022-12-20T11:52:36.363Z,9.27
2022-12-20T11:55:15.095Z,8.70
2022-12-20T11:58:17.586Z,8.52
2022-12-20T12:00:40.272Z,7.90
2022-12-20T12:03:36.953Z,11.18
2022-12-20T12:06:08.379Z,8.93
2022-12-20T12:09:22.710Z,6.03
2022-12-20T12:12:07.892Z,9.45
2022-12-20T12:14:45.740Z,10.00
2022-12-20T12:17:35.823Z,7.60
2022-12-20T12:20:19.951Z,6.97
2022-12-20T12:22:49.364Z,6.43
2022-12-20T12:25:17.685Z,12.15
2022-12-20T12:27:44.241Z,5.47
2022-12-20T12:30:15.083Z,8.80
2022-12-20T12:32:53.996Z,6.13
2022-12-20T12:35:44.747Z,6.70
2022-12-20T12:38:58.361Z,10.27
2022-12-20T12:41:47.935Z,9.57
2022-12-20T12:44:20.229Z,6.10
2022-12-20T12:46:52.083Z,7.90
2022-12-20T12:49:21.992Z,8.00
2022-12-20T12:51:52.136Z,4.18
2022-12-20T12:54:23.021Z,7.53
2022-12-20T12:56:51.070Z,9.13
2022-12-20T12:59:32.536Z,7.45
2022-12-20T13:05:06.993Z,8.43
2022-12-20T13:07:33.432Z,7.60
2022-12-20T13:10:01.294Z,6.43
2022-12-20T13:12:36.693Z,8.68
2022-12-20T13:15:23.179Z,6.65
2022-12-20T13:17:53.432Z,9.63
2022-12-20T13:20:34.324Z,7.88
2022-12-20T13:23:12.649Z,8.25
2022-12-20T13:25:41.408Z,13.10
2022-12-20T13:28:30.937Z,15.15
2022-12-20T13:31:04.512Z,13.57
2022-12-20T13:33:48.152Z,13.73
2022-12-20T13:36:17.435Z,17.70
2022-12-20T13:38:54.034Z,11.05
2022-12-20T13:41:35.377Z,9.43
2022-12-20T13:44:13.934Z,14.95
2022-12-20T13:47:01.814Z,18.63
2022-12-20T13:49:32.501Z,11.82
2022-12-20T13:52:11.142Z,8.20
2022-12-20T13:54:42.198Z,13.63
2022-12-20T13:57:10.941Z,15.90
2022-12-20T13:59:37.546Z,12.85
2022-12-20T14:02:09.347Z,11.55
2022-12-20T14:04:44.756Z,26.40
2022-12-20T14:07:14.938Z,10.07
2022-12-20T14:09:45.594Z,15.88
2022-12-20T14:12:17.910Z,12.13
2022-12-20T14:14:50.148Z,12.07
2022-12-20T14:17:33.336Z,18.05
2022-12-20T14:20:06.690Z,21.67
2022-12-20T14:22:34.474Z,22.23
2022-12-20T14:25:02.430Z,28.23
2022-12-20T14:27:34.036Z,24.20
2022-12-20T14:30:00.643Z,20.83
2022-12-20T14:32:27.294Z,18.20
2022-12-20T14:34:54.000Z,21.02
2022-12-20T14:37:41.608Z,27.48
2022-12-20T14:40:10.912Z,27.45
2022-12-20T14:42:39.006Z,27.23
2022-12-20T14:45:14.493Z,28.05
2022-12-20T14:48:09.367Z,36.20
2022-12-20T14:50:40.810Z,28.65
2022-12-20T14:53:20.204Z,31.92
2022-12-20T14:55:46.736Z,33.33
2022-12-20T14:58:33.971Z,35.28
2022-12-20T15:01:04.218Z,50.15
2022-12-20T15:03:30.900Z,25.52
2022-12-20T15:06:00.872Z,31.27
2022-12-20T15:08:34.946Z,29.17
2022-12-20T15:11:10.595Z,44.38
2022-12-20T15:13:38.186Z,34.35
2022-12-20T15:16:12.716Z,37.38
2022-12-20T15:18:39.371Z,27.35
2022-12-20T15:21:12.979Z,28.58
2022-12-20T15:23:51.540Z,18.77
2022-12-20T15:26:21.621Z,18.38
2022-12-20T15:28:48.433Z,20.77
2022-12-20T15:31:16.954Z,25.63
2022-12-20T15:33:44.531Z,15.00
2022-12-20T15:36:19.832Z,14.68
2022-12-20T15:39:11.260Z,25.35
2022-12-20T15:41:34.690Z,24.60
2022-12-20T15:44:14.161Z,28.10
2022-12-20T15:46:40.852Z,22.30
2022-12-20T15:49:17.372Z,20.92
2022-12-20T15:51:44.678Z,29.25
2022-12-20T15:54:22.689Z,36.05
2022-12-20T15:56:49.252Z,28.67
2022-12-20T15:59:57.045Z,30.90
2022-12-20T16:02:02.589Z,27.85
2022-12-20T16:04:29.331Z,30.33
2022-12-20T16:06:55.940Z,31.77
2022-12-20T16:09:25.467Z,27.35
2022-12-20T16:11:52.332Z,31.75
2022-12-20T16:14:23.593Z,25.08
2022-12-20T16:19:17.092Z,21.90
2022-12-20T16:21:52.695Z,33.88
2022-12-20T16:24:20.449Z,43.35
2022-12-20T16:26:48.969Z,29.67
2022-12-20T16:29:16.285Z,29.73
2022-12-20T16:31:43.429Z,24.45
2022-12-20T16:34:13.491Z,23.77
2022-12-20T16:36:40.200Z,25.90
2022-12-20T16:39:06.836Z,25.65
2022-12-20T16:41:33.831Z,28.73
2022-12-20T16:44:01.545Z,26.85
2022-12-20T16:46:30.177Z,28.67
2022-12-20T16:48:57.794Z,22.40
2022-12-20T16:51:30.368Z,23.88
2022-12-20T16:54:19.425Z,22.13
2022-12-20T16:56:47.444Z,22.40
2022-12-20T16:59:20.558Z,20.83
2022-12-20T17:01:48.894Z,24.42
2022-12-20T17:04:17.653Z,29.40
2022-12-20T17:06:45.452Z,22.55
2022-12-20T17:11:58.651Z,26.38
2022-12-20T17:14:25.286Z,25.58
2022-12-20T17:16:52.464Z,23.13
2022-12-20T17:19:19.815Z,21.23
2022-12-20T17:24:32.892Z,24.05
2022-12-20T17:27:00.395Z,29.73
2022-12-20T17:29:27.403Z,27.83
2022-12-20T17:31:54.509Z,27.77
2022-12-20T17:34:24.599Z,20.95
2022-12-20T17:36:54.256Z,26.10
2022-12-20T17:39:22.321Z,23.00
2022-12-20T17:41:52.066Z,30.48
2022-12-20T17:44:23.833Z,24.08
2022-12-20T17:46:51.214Z,28.58
2022-12-20T17:49:19.504Z,23.27
2022-12-20T17:51:46.421Z,35.25
2022-12-20T17:54:20.065Z,31.92
2022-12-20T17:56:47.102Z,31.38
2022-12-20T17:59:14.295Z,36.70
2022-12-20T18:01:43.068Z,23.70
2022-12-20T18:04:14.886Z,29.33
2022-12-20T18:06:44.347Z,31.05
2022-12-20T18:09:16.870Z,28.15
2022-12-20T18:11:43.524Z,35.45
2022-12-20T18:14:11.164Z,26.40
2022-12-20T18:16:39.214Z,23.13
2022-12-20T18:19:07.227Z,25.70
2022-12-20T18:21:34.228Z,22.80
2022-12-20T18:24:00.894Z,24.73
2022-12-20T18:26:29.888Z,27.05
2022-12-20T18:29:01.218Z,27.58
2022-12-20T18:33:58.237Z,27.48
2022-12-20T18:36:27.738Z,26.70
2022-12-20T18:38:54.756Z,23.98
2022-12-20T18:41:26.527Z,28.08
2022-12-20T18:43:56.511Z,34.00
2022-12-20T18:46:26.164Z,32.40
2022-12-20T18:48:55.303Z,26.08
2022-12-20T18:51:24.786Z,28.15
2022-12-20T18:53:55.213Z,29.13
2022-12-20T18:56:28.717Z,31.58
2022-12-20T18:58:56.988Z,36.60
2022-12-20T19:01:29.311Z,41.75
2022-12-20T19:03:56.356Z,41.50
2022-12-20T19:06:23.584Z,32.25
2022-12-20T19:08:50.800Z,37.30
2022-12-20T19:11:20.177Z,38.95
2022-12-20T19:13:46.992Z,34.17
2022-12-20T19:16:16.278Z,47.53
2022-12-20T19:18:43.783Z,40.58
2022-12-20T19:21:16.281Z,35.97
2022-12-20T19:23:45.247Z,33.92
2022-12-20T19:26:13.400Z,38.50
2022-12-20T19:28:41.574Z,35.90
2022-12-20T19:31:08.332Z,36.70
2022-12-20T19:33:39.377Z,37.63
2022-12-20T19:36:25.695Z,36.10
2022-12-20T19:38:57.632Z,33.72
2022-12-20T19:41:26.333Z,30.13
2022-12-20T19:43:53.131Z,31.83
2022-12-20T19:46:28.385Z,37.75
2022-12-20T19:48:56.080Z,33.55
2022-12-20T19:51:23.438Z,31.27
2022-12-20T19:53:51.784Z,36.47
2022-12-20T19:56:20.901Z,41.33
2022-12-20T19:58:47.879Z,35.95
2022-12-20T20:01:16.237Z,36.97
2022-12-20T20:03:43.532Z,34.92
2022-12-20T20:06:10.520Z,40.00
2022-12-20T20:08:37.409Z,35.03
2022-12-20T20:11:09.530Z,42.88
2022-12-20T20:13:38.145Z,42.47
2022-12-20T20:16:05.605Z,35.40
2022-12-20T20:18:37.259Z,38.45
2022-12-20T20:21:08.586Z,42.38
2022-12-20T20:26:06.897Z,53.20
2022-12-20T20:28:38.455Z,50.28
2022-12-20T20:31:15.537Z,45.75
2022-12-20T20:33:42.697Z,31.73
2022-12-20T20:36:12.484Z,45.90
2022-12-20T20:38:39.081Z,40.60
2022-12-20T20:41:05.780Z,43.15
2022-12-20T20:43:36.617Z,46.17
2022-12-20T20:46:06.027Z,48.47
2022-12-20T20:48:32.669Z,44.85
2022-12-20T20:50:59.356Z,41.25
2022-12-20T20:53:31.216Z,39.50
2022-12-20T20:56:00.245Z,41.95
2022-12-20T20:58:26.920Z,41.78
2022-12-20T21:01:01.350Z,42.05
2022-12-20T21:03:29.192Z,39.83
2022-12-20T21:08:42.753Z,40.80
2022-12-20T21:11:09.933Z,41.95
2022-12-20T21:13:36.845Z,36.65
2022-12-20T21:16:08.368Z,37.40
2022-12-20T21:18:35.585Z,37.97
2022-12-20T21:21:09.416Z,35.72
2022-12-20T21:23:36.452Z,32.35
2022-12-20T21:26:03.465Z,42.90
2022-12-20T21:28:31.460Z,35.95
2022-12-20T21:31:01.658Z,36.40
2022-12-20T21:33:28.937Z,33.75
2022-12-20T21:36:02.975Z,34.10
2022-12-20T21:38:29.495Z,30.67
2022-12-20T21:41:07.078Z,30.75
2022-12-20T21:43:33.725Z,27.45
2022-12-20T21:46:00.962Z,32.75
2022-12-20T21:48:27.497Z,25.33
2022-12-20T21:51:06.219Z,28.88
2022-12-20T21:53:33.164Z,27.25
2022-12-20T21:56:00.524Z,25.45
2022-12-20T21:58:28.222Z,26.20
2022-12-20T22:00:55.989Z,27.05
2022-12-20T22:03:23.637Z,22.65
2022-12-20T22:05:52.311Z,28.90
2022-12-20T22:08:19.567Z,28.17
2022-12-20T22:10:46.267Z,26.15
2022-12-20T22:13:13.370Z,25.20
2022-12-20T22:15:40.729Z,29.20
2022-12-20T22:18:07.932Z,26.65
2022-12-20T22:20:35.587Z,23.30
2022-12-20T22:23:02.404Z,28.13
2022-12-20T22:25:28.932Z,28.08
2022-12-20T22:27:55.507Z,23.60
2022-12-20T22:30:22.019Z,23.67
2022-12-20T22:32:48.635Z,26.52
2022-12-20T22:35:22.299Z,26.75
2022-12-20T22:37:49.398Z,22.35
2022-12-20T22:40:15.957Z,24.38
2022-12-20T22:42:42.526Z,28.52
2022-12-20T22:45:09.786Z,22.15
2022-12-20T22:47:36.830Z,23.42
2022-12-20T22:50:06.844Z,25.02
2022-12-20T22:52:33.617Z,20.98
2022-12-20T22:55:00.174Z,25.77
2022-12-20T22:57:27.662Z,23.30
2022-12-20T22:59:58.535Z,23.55
2022-12-20T23:02:26.201Z,24.25
2022-12-20T23:04:52.898Z,27.50
2022-12-20T23:07:20.772Z,27.95
2022-12-20T23:09:47.318Z,26.23
2022-12-20T23:12:32.767Z,25.40
2022-12-20T23:15:17.701Z,28.67
2022-12-20T23:17:44.422Z,24.05
2022-12-20T23:20:29.914Z,24.00
2022-12-20T23:22:56.432Z,26.35
2022-12-20T23:25:23.101Z,29.38
2022-12-20T23:27:50.002Z,34.13
2022-12-20T23:30:19.501Z,33.30
2022-12-20T23:32:46.638Z,31.42
2022-12-20T23:35:15.735Z,29.63
2022-12-20T23:37:42.698Z,31.27
2022-12-20T23:40:10.795Z,30.42
2022-12-20T23:42:37.607Z,25.98
2022-12-20T23:45:04.608Z,28.70
2022-12-20T23:47:31.536Z,31.25
2022-12-20T23:49:58.039Z,36.33
2022-12-20T23:52:24.701Z,32.85
2022-12-20T23:54:51.254Z,29.58
2022-12-20T23:57:17.759Z,36.15
2022-12-20T23:59:44.331Z,36.60
